Terminal Aerodrome Forecast
Issued by NWS

Home | Current Version | Previous Version | Text Only | Print | Product List | Glossary On
Versions: 1 2 3 4 5 6 7 8 9 10 11 12 13 14 15 16 17 18 19 20 21 22 23
000
FTUS41 KGYX 012320
TAFAUG
TAF
KAUG 012320Z 0200/0224 03008KT P6SM BKN018
     FM020300 02008KT 4SM -DZ BR SCT003 OVC007
     FM020900 02010KT 3SM BR OVC005
     FM021300 02010KT P6SM OVC025
     FM021400 01009KT P6SM BKN120=

USA.gov is the U.S. government's official web portal to all federal, state and local government web resources and services.